sensor_id;sensor_type;location;lat;lon;timestamp;P1;durP1;ratioP1;P2;durP2;ratioP2
10319;SDS011;5205;52.168;5.420;2023-12-07T00:02:14;15.57;;;6.68;;
10319;SDS011;5205;52.168;5.420;2023-12-07T00:04:41;12.10;;;6.97;;
10319;SDS011;5205;52.168;5.420;2023-12-07T00:07:08;11.80;;;7.03;;
10319;SDS011;5205;52.168;5.420;2023-12-07T00:09:35;13.48;;;6.68;;
10319;SDS011;5205;52.168;5.420;2023-12-07T00:12:06;15.00;;;7.88;;
10319;SDS011;5205;52.168;5.420;2023-12-07T00:14:34;13.77;;;7.07;;
10319;SDS011;5205;52.168;5.420;2023-12-07T00:17:01;10.85;;;6.13;;
10319;SDS011;5205;52.168;5.420;2023-12-07T00:19:28;11.85;;;6.95;;
10319;SDS011;5205;52.168;5.420;2023-12-07T00:21:55;12.55;;;6.65;;
10319;SDS011;5205;52.168;5.420;2023-12-07T00:24:22;14.02;;;6.60;;
10319;SDS011;5205;52.168;5.420;2023-12-07T00:26:49;16.38;;;7.47;;
10319;SDS011;5205;52.168;5.420;2023-12-07T00:29:17;12.60;;;7.00;;
10319;SDS011;5205;52.168;5.420;2023-12-07T00:31:47;15.05;;;7.38;;
10319;SDS011;5205;52.168;5.420;2023-12-07T00:34:17;15.18;;;6.72;;
10319;SDS011;5205;52.168;5.420;2023-12-07T00:36:44;14.52;;;6.60;;
10319;SDS011;5205;52.168;5.420;2023-12-07T00:39:11;15.55;;;7.05;;
10319;SDS011;5205;52.168;5.420;2023-12-07T00:41:38;12.65;;;6.93;;
10319;SDS011;5205;52.168;5.420;2023-12-07T00:44:05;12.63;;;6.57;;
10319;SDS011;5205;52.168;5.420;2023-12-07T00:46:32;13.23;;;6.25;;
10319;SDS011;5205;52.168;5.420;2023-12-07T00:49:00;12.00;;;6.40;;
10319;SDS011;5205;52.168;5.420;2023-12-07T00:51:27;13.43;;;6.25;;
10319;SDS011;5205;52.168;5.420;2023-12-07T00:53:54;18.50;;;7.00;;
10319;SDS011;5205;52.168;5.420;2023-12-07T00:56:22;15.68;;;6.75;;
10319;SDS011;5205;52.168;5.420;2023-12-07T00:58:49;15.60;;;7.32;;
10319;SDS011;5205;52.168;5.420;2023-12-07T01:01:16;12.27;;;5.93;;
10319;SDS011;5205;52.168;5.420;2023-12-07T01:03:43;17.67;;;6.15;;
10319;SDS011;5205;52.168;5.420;2023-12-07T01:06:11;11.27;;;6.63;;
10319;SDS011;5205;52.168;5.420;2023-12-07T01:08:39;12.25;;;6.03;;
10319;SDS011;5205;52.168;5.420;2023-12-07T01:11:06;14.18;;;6.78;;
10319;SDS011;5205;52.168;5.420;2023-12-07T01:16:01;13.88;;;6.25;;
10319;SDS011;5205;52.168;5.420;2023-12-07T01:18:28;13.32;;;6.40;;
10319;SDS011;5205;52.168;5.420;2023-12-07T01:20:55;10.15;;;5.75;;
10319;SDS011;5205;52.168;5.420;2023-12-07T01:23:23;14.02;;;6.35;;
10319;SDS011;5205;52.168;5.420;2023-12-07T01:25:51;14.23;;;6.65;;
10319;SDS011;5205;52.168;5.420;2023-12-07T01:28:18;11.45;;;5.75;;
10319;SDS011;5205;52.168;5.420;2023-12-07T01:30:45;12.32;;;6.72;;
10319;SDS011;5205;52.168;5.420;2023-12-07T01:33:12;12.82;;;7.15;;
10319;SDS011;5205;52.168;5.420;2023-12-07T01:35:39;11.40;;;6.43;;
10319;SDS011;5205;52.168;5.420;2023-12-07T01:38:06;12.10;;;6.03;;
10319;SDS011;5205;52.168;5.420;2023-12-07T01:40:34;12.60;;;6.78;;
10319;SDS011;5205;52.168;5.420;2023-12-07T01:43:01;14.25;;;6.53;;
10319;SDS011;5205;52.168;5.420;2023-12-07T01:45:29;12.68;;;6.32;;
10319;SDS011;5205;52.168;5.420;2023-12-07T01:47:56;12.07;;;6.25;;
10319;SDS011;5205;52.168;5.420;2023-12-07T01:50:24;12.57;;;5.75;;
10319;SDS011;5205;52.168;5.420;2023-12-07T01:52:54;12.55;;;7.03;;
10319;SDS011;5205;52.168;5.420;2023-12-07T01:55:22;11.02;;;5.22;;
10319;SDS011;5205;52.168;5.420;2023-12-07T01:57:50;15.98;;;6.07;;
10319;SDS011;5205;52.168;5.420;2023-12-07T02:00:17;15.10;;;5.82;;
10319;SDS011;5205;52.168;5.420;2023-12-07T02:02:44;16.80;;;6.75;;
10319;SDS011;5205;52.168;5.420;2023-12-07T02:05:13;11.95;;;6.70;;
10319;SDS011;5205;52.168;5.420;2023-12-07T02:10:08;10.50;;;5.75;;
10319;SDS011;5205;52.168;5.420;2023-12-07T02:15:03;9.82;;;5.57;;
10319;SDS011;5205;52.168;5.420;2023-12-07T02:17:33;10.95;;;5.60;;
10319;SDS011;5205;52.168;5.420;2023-12-07T02:20:04;11.45;;;7.05;;
10319;SDS011;5205;52.168;5.420;2023-12-07T02:22:35;11.20;;;5.85;;
10319;SDS011;5205;52.168;5.420;2023-12-07T02:25:05;11.65;;;5.93;;
10319;SDS011;5205;52.168;5.420;2023-12-07T02:27:38;11.93;;;5.95;;
10319;SDS011;5205;52.168;5.420;2023-12-07T02:30:06;10.40;;;5.93;;
10319;SDS011;5205;52.168;5.420;2023-12-07T02:32:33;14.40;;;6.55;;
10319;SDS011;5205;52.168;5.420;2023-12-07T02:35:00;12.10;;;6.10;;
10319;SDS011;5205;52.168;5.420;2023-12-07T02:37:28;11.88;;;6.00;;
10319;SDS011;5205;52.168;5.420;2023-12-07T02:39:55;12.48;;;6.70;;
10319;SDS011;5205;52.168;5.420;2023-12-07T02:42:23;13.05;;;6.00;;
10319;SDS011;5205;52.168;5.420;2023-12-07T02:44:53;13.35;;;6.90;;
10319;SDS011;5205;52.168;5.420;2023-12-07T02:47:20;15.00;;;6.63;;
10319;SDS011;5205;52.168;5.420;2023-12-07T02:49:47;12.43;;;6.90;;
10319;SDS011;5205;52.168;5.420;2023-12-07T02:52:14;12.77;;;6.90;;
10319;SDS011;5205;52.168;5.420;2023-12-07T02:54:41;14.40;;;6.93;;
10319;SDS011;5205;52.168;5.420;2023-12-07T02:57:08;13.45;;;7.85;;
10319;SDS011;5205;52.168;5.420;2023-12-07T02:59:35;12.40;;;7.00;;
10319;SDS011;5205;52.168;5.420;2023-12-07T03:02:04;13.45;;;6.90;;
10319;SDS011;5205;52.168;5.420;2023-12-07T03:04:31;11.48;;;6.93;;
10319;SDS011;5205;52.168;5.420;2023-12-07T03:06:58;14.90;;;7.32;;
10319;SDS011;5205;52.168;5.420;2023-12-07T03:09:25;15.07;;;6.90;;
10319;SDS011;5205;52.168;5.420;2023-12-07T03:11:52;13.75;;;7.25;;
10319;SDS011;5205;52.168;5.420;2023-12-07T03:14:19;10.20;;;6.47;;
10319;SDS011;5205;52.168;5.420;2023-12-07T03:16:46;14.30;;;6.70;;
10319;SDS011;5205;52.168;5.420;2023-12-07T03:19:15;12.00;;;6.38;;
10319;SDS011;5205;52.168;5.420;2023-12-07T03:21:42;15.93;;;7.18;;
10319;SDS011;5205;52.168;5.420;2023-12-07T03:24:09;13.38;;;7.57;;
10319;SDS011;5205;52.168;5.420;2023-12-07T03:26:36;12.10;;;6.97;;
10319;SDS011;5205;52.168;5.420;2023-12-07T03:29:03;18.08;;;7.00;;
10319;SDS011;5205;52.168;5.420;2023-12-07T03:31:30;18.92;;;7.72;;
10319;SDS011;5205;52.168;5.420;2023-12-07T03:33:57;11.23;;;5.47;;
10319;SDS011;5205;52.168;5.420;2023-12-07T03:36:27;11.57;;;7.15;;
10319;SDS011;5205;52.168;5.420;2023-12-07T03:38:55;13.93;;;7.25;;
10319;SDS011;5205;52.168;5.420;2023-12-07T03:41:22;10.88;;;6.70;;
10319;SDS011;5205;52.168;5.420;2023-12-07T03:43:49;12.13;;;6.45;;
10319;SDS011;5205;52.168;5.420;2023-12-07T03:46:16;12.35;;;7.15;;
10319;SDS011;5205;52.168;5.420;2023-12-07T03:51:12;10.27;;;5.72;;
10319;SDS011;5205;52.168;5.420;2023-12-07T03:53:41;10.57;;;6.55;;
10319;SDS011;5205;52.168;5.420;2023-12-07T03:56:08;13.25;;;5.55;;
10319;SDS011;5205;52.168;5.420;2023-12-07T03:58:36;14.70;;;6.47;;
10319;SDS011;5205;52.168;5.420;2023-12-07T04:01:03;13.25;;;6.97;;
10319;SDS011;5205;52.168;5.420;2023-12-07T04:03:30;13.52;;;7.13;;
10319;SDS011;5205;52.168;5.420;2023-12-07T04:05:57;12.45;;;7.10;;
10319;SDS011;5205;52.168;5.420;2023-12-07T04:08:24;14.02;;;6.95;;
10319;SDS011;5205;52.168;5.420;2023-12-07T04:10:53;12.02;;;6.43;;
10319;SDS011;5205;52.168;5.420;2023-12-07T04:13:20;12.35;;;7.07;;
10319;SDS011;5205;52.168;5.420;2023-12-07T04:15:48;10.70;;;6.03;;
10319;SDS011;5205;52.168;5.420;2023-12-07T04:18:15;11.68;;;6.38;;
10319;SDS011;5205;52.168;5.420;2023-12-07T04:20:42;16.15;;;8.05;;
10319;SDS011;5205;52.168;5.420;2023-12-07T04:23:09;9.52;;;5.97;;
10319;SDS011;5205;52.168;5.420;2023-12-07T04:25:36;12.15;;;6.57;;
10319;SDS011;5205;52.168;5.420;2023-12-07T04:28:05;13.85;;;7.32;;
10319;SDS011;5205;52.168;5.420;2023-12-07T04:30:32;17.50;;;7.15;;
10319;SDS011;5205;52.168;5.420;2023-12-07T04:32:59;18.27;;;7.20;;
10319;SDS011;5205;52.168;5.420;2023-12-07T04:35:26;11.55;;;6.03;;
10319;SDS011;5205;52.168;5.420;2023-12-07T04:37:53;19.48;;;7.47;;
10319;SDS011;5205;52.168;5.420;2023-12-07T04:40:20;18.08;;;7.00;;
10319;SDS011;5205;52.168;5.420;2023-12-07T04:42:49;22.30;;;8.23;;
10319;SDS011;5205;52.168;5.420;2023-12-07T04:45:17;34.90;;;8.75;;
10319;SDS011;5205;52.168;5.420;2023-12-07T04:47:44;18.98;;;7.55;;
10319;SDS011;5205;52.168;5.420;2023-12-07T04:50:12;19.73;;;7.18;;
10319;SDS011;5205;52.168;5.420;2023-12-07T04:52:39;23.10;;;6.90;;
10319;SDS011;5205;52.168;5.420;2023-12-07T04:55:07;16.70;;;7.82;;
10319;SDS011;5205;52.168;5.420;2023-12-07T04:57:34;21.95;;;7.78;;
10319;SDS011;5205;52.168;5.420;2023-12-07T05:00:01;36.55;;;8.18;;
10319;SDS011;5205;52.168;5.420;2023-12-07T05:02:32;24.08;;;7.75;;
10319;SDS011;5205;52.168;5.420;2023-12-07T05:04:59;26.50;;;9.60;;
10319;SDS011;5205;52.168;5.420;2023-12-07T05:07:26;28.77;;;8.70;;
10319;SDS011;5205;52.168;5.420;2023-12-07T05:09:53;36.85;;;8.00;;
10319;SDS011;5205;52.168;5.420;2023-12-07T05:12:20;35.33;;;8.10;;
10319;SDS011;5205;52.168;5.420;2023-12-07T05:14:47;33.40;;;7.30;;
10319;SDS011;5205;52.168;5.420;2023-12-07T05:17:15;29.30;;;8.10;;
10319;SDS011;5205;52.168;5.420;2023-12-07T05:19:44;27.40;;;7.45;;
10319;SDS011;5205;52.168;5.420;2023-12-07T05:22:12;35.65;;;8.43;;
10319;SDS011;5205;52.168;5.420;2023-12-07T05:24:40;12.82;;;6.20;;
10319;SDS011;5205;52.168;5.420;2023-12-07T05:27:07;29.55;;;7.10;;
10319;SDS011;5205;52.168;5.420;2023-12-07T05:29:35;27.52;;;7.65;;
10319;SDS011;5205;52.168;5.420;2023-12-07T05:32:02;19.48;;;8.20;;
10319;SDS011;5205;52.168;5.420;2023-12-07T05:34:29;16.73;;;7.43;;
10319;SDS011;5205;52.168;5.420;2023-12-07T05:36:58;22.50;;;7.78;;
10319;SDS011;5205;52.168;5.420;2023-12-07T05:39:25;21.08;;;7.40;;
10319;SDS011;5205;52.168;5.420;2023-12-07T05:41:52;23.60;;;7.22;;
10319;SDS011;5205;52.168;5.420;2023-12-07T05:44:19;38.00;;;8.00;;
10319;SDS011;5205;52.168;5.420;2023-12-07T05:46:47;22.50;;;8.30;;
10319;SDS011;5205;52.168;5.420;2023-12-07T05:49:14;20.75;;;6.82;;
10319;SDS011;5205;52.168;5.420;2023-12-07T05:51:41;37.35;;;8.27;;
10319;SDS011;5205;52.168;5.420;2023-12-07T05:54:10;22.88;;;8.40;;
10319;SDS011;5205;52.168;5.420;2023-12-07T05:56:37;16.60;;;6.57;;
10319;SDS011;5205;52.168;5.420;2023-12-07T05:59:04;26.90;;;7.15;;
10319;SDS011;5205;52.168;5.420;2023-12-07T06:01:31;21.42;;;6.93;;
10319;SDS011;5205;52.168;5.420;2023-12-07T06:03:58;24.20;;;8.07;;
10319;SDS011;5205;52.168;5.420;2023-12-07T06:06:25;21.92;;;8.57;;
10319;SDS011;5205;52.168;5.420;2023-12-07T06:08:52;46.13;;;7.20;;
10319;SDS011;5205;52.168;5.420;2023-12-07T06:11:21;42.03;;;8.00;;
10319;SDS011;5205;52.168;5.420;2023-12-07T06:13:48;27.25;;;7.80;;
10319;SDS011;5205;52.168;5.420;2023-12-07T06:16:15;46.25;;;8.48;;
10319;SDS011;5205;52.168;5.420;2023-12-07T06:18:43;41.55;;;9.05;;
10319;SDS011;5205;52.168;5.420;2023-12-07T06:21:10;27.02;;;7.50;;
10319;SDS011;5205;52.168;5.420;2023-12-07T06:23:38;34.47;;;8.27;;
10319;SDS011;5205;52.168;5.420;2023-12-07T06:26:05;27.58;;;7.28;;
10319;SDS011;5205;52.168;5.420;2023-12-07T06:28:34;30.42;;;8.77;;
10319;SDS011;5205;52.168;5.420;2023-12-07T06:31:04;25.48;;;7.50;;
10319;SDS011;5205;52.168;5.420;2023-12-07T06:33:32;24.45;;;8.60;;
10319;SDS011;5205;52.168;5.420;2023-12-07T06:35:59;33.60;;;8.10;;
10319;SDS011;5205;52.168;5.420;2023-12-07T06:38:28;20.17;;;8.85;;
10319;SDS011;5205;52.168;5.420;2023-12-07T06:40:55;23.60;;;9.23;;
10319;SDS011;5205;52.168;5.420;2023-12-07T06:43:22;20.30;;;8.07;;
10319;SDS011;5205;52.168;5.420;2023-12-07T06:45:51;27.75;;;9.20;;
10319;SDS011;5205;52.168;5.420;2023-12-07T06:48:18;15.50;;;7.93;;
10319;SDS011;5205;52.168;5.420;2023-12-07T06:50:45;17.13;;;9.25;;
10319;SDS011;5205;52.168;5.420;2023-12-07T06:53:14;29.83;;;9.50;;
10319;SDS011;5205;52.168;5.420;2023-12-07T06:55:43;25.60;;;8.32;;
10319;SDS011;5205;52.168;5.420;2023-12-07T06:58:10;20.40;;;8.18;;
10319;SDS011;5205;52.168;5.420;2023-12-07T07:00:37;22.67;;;9.05;;
10319;SDS011;5205;52.168;5.420;2023-12-07T07:03:06;18.15;;;7.78;;
10319;SDS011;5205;52.168;5.420;2023-12-07T07:05:33;25.55;;;8.88;;
10319;SDS011;5205;52.168;5.420;2023-12-07T07:08:00;20.70;;;9.75;;
10319;SDS011;5205;52.168;5.420;2023-12-07T07:10:28;27.33;;;10.82;;
10319;SDS011;5205;52.168;5.420;2023-12-07T07:12:58;19.15;;;9.77;;
10319;SDS011;5205;52.168;5.420;2023-12-07T07:15:26;21.67;;;9.02;;
10319;SDS011;5205;52.168;5.420;2023-12-07T07:17:53;32.38;;;8.13;;
10319;SDS011;5205;52.168;5.420;2023-12-07T07:20:22;29.52;;;8.95;;
10319;SDS011;5205;52.168;5.420;2023-12-07T07:22:49;27.88;;;9.82;;
10319;SDS011;5205;52.168;5.420;2023-12-07T07:25:16;20.23;;;8.98;;
10319;SDS011;5205;52.168;5.420;2023-12-07T07:27:44;21.05;;;8.55;;
10319;SDS011;5205;52.168;5.420;2023-12-07T07:32:38;25.25;;;7.90;;
10319;SDS011;5205;52.168;5.420;2023-12-07T07:35:06;18.92;;;9.60;;
10319;SDS011;5205;52.168;5.420;2023-12-07T07:37:34;18.38;;;9.10;;
10319;SDS011;5205;52.168;5.420;2023-12-07T07:40:02;16.75;;;9.00;;
10319;SDS011;5205;52.168;5.420;2023-12-07T07:42:31;18.45;;;8.95;;
10319;SDS011;5205;52.168;5.420;2023-12-07T07:44:59;19.55;;;9.70;;
10319;SDS011;5205;52.168;5.420;2023-12-07T07:47:26;24.98;;;9.65;;
10319;SDS011;5205;52.168;5.420;2023-12-07T07:49:53;22.77;;;8.63;;
10319;SDS011;5205;52.168;5.420;2023-12-07T07:52:20;30.73;;;9.10;;
10319;SDS011;5205;52.168;5.420;2023-12-07T07:54:49;21.75;;;9.27;;
10319;SDS011;5205;52.168;5.420;2023-12-07T07:57:16;36.15;;;9.30;;
10319;SDS011;5205;52.168;5.420;2023-12-07T07:59:43;18.65;;;7.93;;
10319;SDS011;5205;52.168;5.420;2023-12-07T08:02:10;20.48;;;8.45;;
10319;SDS011;5205;52.168;5.420;2023-12-07T08:04:37;22.85;;;7.82;;
10319;SDS011;5205;52.168;5.420;2023-12-07T08:07:04;29.30;;;8.75;;
10319;SDS011;5205;52.168;5.420;2023-12-07T08:09:32;23.83;;;8.25;;
10319;SDS011;5205;52.168;5.420;2023-12-07T08:12:01;14.63;;;7.65;;
10319;SDS011;5205;52.168;5.420;2023-12-07T08:14:28;18.38;;;7.13;;
10319;SDS011;5205;52.168;5.420;2023-12-07T08:16:55;39.40;;;8.10;;
10319;SDS011;5205;52.168;5.420;2023-12-07T08:19:22;18.77;;;8.07;;
10319;SDS011;5205;52.168;5.420;2023-12-07T08:21:50;37.42;;;9.88;;
10319;SDS011;5205;52.168;5.420;2023-12-07T08:24:17;19.02;;;8.35;;
10319;SDS011;5205;52.168;5.420;2023-12-07T08:26:44;20.88;;;7.90;;
10319;SDS011;5205;52.168;5.420;2023-12-07T08:29:13;15.15;;;8.40;;
10319;SDS011;5205;52.168;5.420;2023-12-07T08:31:40;21.30;;;8.25;;
10319;SDS011;5205;52.168;5.420;2023-12-07T08:34:07;20.77;;;9.52;;
10319;SDS011;5205;52.168;5.420;2023-12-07T08:36:34;30.50;;;9.30;;
10319;SDS011;5205;52.168;5.420;2023-12-07T08:39:01;15.20;;;8.05;;
10319;SDS011;5205;52.168;5.420;2023-12-07T08:41:28;19.27;;;8.63;;
10319;SDS011;5205;52.168;5.420;2023-12-07T08:43:55;37.97;;;9.27;;
10319;SDS011;5205;52.168;5.420;2023-12-07T08:46:24;20.70;;;7.50;;
10319;SDS011;5205;52.168;5.420;2023-12-07T08:48:51;38.40;;;9.18;;
10319;SDS011;5205;52.168;5.420;2023-12-07T08:51:18;25.67;;;8.07;;
10319;SDS011;5205;52.168;5.420;2023-12-07T08:53:46;29.10;;;8.55;;
10319;SDS011;5205;52.168;5.420;2023-12-07T08:56:13;20.83;;;10.65;;
10319;SDS011;5205;52.168;5.420;2023-12-07T08:58:40;17.63;;;8.25;;
10319;SDS011;5205;52.168;5.420;2023-12-07T09:01:07;21.88;;;8.23;;
10319;SDS011;5205;52.168;5.420;2023-12-07T09:03:35;22.23;;;9.27;;
10319;SDS011;5205;52.168;5.420;2023-12-07T09:06:02;20.90;;;9.63;;
10319;SDS011;5205;52.168;5.420;2023-12-07T09:08:30;24.17;;;9.27;;
10319;SDS011;5205;52.168;5.420;2023-12-07T09:10:57;20.48;;;8.30;;
10319;SDS011;5205;52.168;5.420;2023-12-07T09:13:24;15.85;;;7.65;;
10319;SDS011;5205;52.168;5.420;2023-12-07T09:15:52;24.95;;;8.95;;
10319;SDS011;5205;52.168;5.420;2023-12-07T09:18:20;25.35;;;8.57;;
10319;SDS011;5205;52.168;5.420;2023-12-07T09:20:48;27.20;;;9.52;;
10319;SDS011;5205;52.168;5.420;2023-12-07T09:23:16;28.33;;;9.85;;
10319;SDS011;5205;52.168;5.420;2023-12-07T09:25:43;25.58;;;9.30;;
10319;SDS011;5205;52.168;5.420;2023-12-07T09:28:10;23.27;;;8.93;;
10319;SDS011;5205;52.168;5.420;2023-12-07T09:30:37;31.98;;;9.52;;
10319;SDS011;5205;52.168;5.420;2023-12-07T09:33:04;30.88;;;10.40;;
10319;SDS011;5205;52.168;5.420;2023-12-07T09:35:31;35.97;;;11.23;;
10319;SDS011;5205;52.168;5.420;2023-12-07T09:40:27;19.50;;;8.32;;
10319;SDS011;5205;52.168;5.420;2023-12-07T09:42:54;21.85;;;9.18;;
10319;SDS011;5205;52.168;5.420;2023-12-07T09:45:21;20.88;;;8.80;;
10319;SDS011;5205;52.168;5.420;2023-12-07T09:47:49;20.00;;;7.90;;
10319;SDS011;5205;52.168;5.420;2023-12-07T09:50:17;15.25;;;8.07;;
10319;SDS011;5205;52.168;5.420;2023-12-07T09:52:47;17.35;;;9.15;;
10319;SDS011;5205;52.168;5.420;2023-12-07T09:55:15;16.77;;;7.53;;
10319;SDS011;5205;52.168;5.420;2023-12-07T09:57:44;17.92;;;7.28;;
10319;SDS011;5205;52.168;5.420;2023-12-07T10:00:12;15.95;;;7.35;;
10319;SDS011;5205;52.168;5.420;2023-12-07T10:02:40;14.18;;;7.45;;
10319;SDS011;5205;52.168;5.420;2023-12-07T10:05:08;19.90;;;7.65;;
10319;SDS011;5205;52.168;5.420;2023-12-07T10:07:36;17.23;;;8.60;;
10319;SDS011;5205;52.168;5.420;2023-12-07T10:10:03;20.45;;;9.10;;
10319;SDS011;5205;52.168;5.420;2023-12-07T10:15:00;11.13;;;5.75;;
10319;SDS011;5205;52.168;5.420;2023-12-07T10:17:42;14.10;;;6.55;;
10319;SDS011;5205;52.168;5.420;2023-12-07T10:20:10;15.45;;;7.47;;
10319;SDS011;5205;52.168;5.420;2023-12-07T10:22:38;15.38;;;6.00;;
10319;SDS011;5205;52.168;5.420;2023-12-07T10:25:06;13.73;;;6.72;;
10319;SDS011;5205;52.168;5.420;2023-12-07T10:30:02;15.07;;;6.18;;
10319;SDS011;5205;52.168;5.420;2023-12-07T10:32:29;12.68;;;4.70;;
10319;SDS011;5205;52.168;5.420;2023-12-07T10:34:56;12.30;;;5.80;;
10319;SDS011;5205;52.168;5.420;2023-12-07T10:37:26;8.80;;;4.38;;
10319;SDS011;5205;52.168;5.420;2023-12-07T10:39:53;11.32;;;5.82;;
10319;SDS011;5205;52.168;5.420;2023-12-07T10:42:20;11.63;;;4.63;;
10319;SDS011;5205;52.168;5.420;2023-12-07T10:44:52;9.82;;;4.93;;
10319;SDS011;5205;52.168;5.420;2023-12-07T10:47:21;14.18;;;5.05;;
10319;SDS011;5205;52.168;5.420;2023-12-07T10:49:50;16.52;;;7.03;;
10319;SDS011;5205;52.168;5.420;2023-12-07T10:52:20;14.02;;;6.05;;
10319;SDS011;5205;52.168;5.420;2023-12-07T10:54:50;12.88;;;5.78;;
10319;SDS011;5205;52.168;5.420;2023-12-07T10:57:17;9.18;;;5.25;;
10319;SDS011;5205;52.168;5.420;2023-12-07T10:59:46;11.20;;;5.95;;
10319;SDS011;5205;52.168;5.420;2023-12-07T11:02:15;16.88;;;5.20;;
10319;SDS011;5205;52.168;5.420;2023-12-07T11:04:44;10.98;;;5.75;;
10319;SDS011;5205;52.168;5.420;2023-12-07T11:07:12;9.55;;;4.68;;
10319;SDS011;5205;52.168;5.420;2023-12-07T11:09:42;11.27;;;5.40;;
10319;SDS011;5205;52.168;5.420;2023-12-07T11:12:13;10.35;;;5.03;;
10319;SDS011;5205;52.168;5.420;2023-12-07T11:14:43;10.80;;;5.32;;
10319;SDS011;5205;52.168;5.420;2023-12-07T11:19:44;11.93;;;4.90;;
10319;SDS011;5205;52.168;5.420;2023-12-07T11:22:12;10.55;;;5.60;;
10319;SDS011;5205;52.168;5.420;2023-12-07T11:24:51;11.05;;;5.72;;
10319;SDS011;5205;52.168;5.420;2023-12-07T11:29:45;16.30;;;5.43;;
10319;SDS011;5205;52.168;5.420;2023-12-07T11:34:40;11.65;;;4.53;;
10319;SDS011;5205;52.168;5.420;2023-12-07T11:37:09;12.18;;;5.00;;
10319;SDS011;5205;52.168;5.420;2023-12-07T11:39:37;11.68;;;5.30;;
10319;SDS011;5205;52.168;5.420;2023-12-07T11:42:06;12.43;;;5.45;;
10319;SDS011;5205;52.168;5.420;2023-12-07T11:44:34;11.25;;;5.13;;
10319;SDS011;5205;52.168;5.420;2023-12-07T11:47:01;12.02;;;4.93;;
10319;SDS011;5205;52.168;5.420;2023-12-07T11:51:56;11.35;;;5.35;;
10319;SDS011;5205;52.168;5.420;2023-12-07T11:54:26;9.57;;;4.55;;
10319;SDS011;5205;52.168;5.420;2023-12-07T11:56:54;11.73;;;6.60;;
10319;SDS011;5205;52.168;5.420;2023-12-07T11:59:23;15.25;;;6.72;;
10319;SDS011;5205;52.168;5.420;2023-12-07T12:01:52;15.35;;;6.25;;
10319;SDS011;5205;52.168;5.420;2023-12-07T12:04:21;14.27;;;7.15;;
10319;SDS011;5205;52.168;5.420;2023-12-07T12:06:48;14.98;;;6.28;;
10319;SDS011;5205;52.168;5.420;2023-12-07T12:09:15;18.95;;;7.10;;
10319;SDS011;5205;52.168;5.420;2023-12-07T12:14:11;18.73;;;7.13;;
10319;SDS011;5205;52.168;5.420;2023-12-07T12:16:38;15.20;;;6.72;;
10319;SDS011;5205;52.168;5.420;2023-12-07T12:19:05;15.48;;;6.80;;
10319;SDS011;5205;52.168;5.420;2023-12-07T12:21:33;17.88;;;7.88;;
10319;SDS011;5205;52.168;5.420;2023-12-07T12:24:00;19.48;;;7.75;;
10319;SDS011;5205;52.168;5.420;2023-12-07T12:26:27;20.95;;;8.85;;
10319;SDS011;5205;52.168;5.420;2023-12-07T12:28:55;21.08;;;9.10;;
10319;SDS011;5205;52.168;5.420;2023-12-07T12:31:23;18.00;;;7.65;;
10319;SDS011;5205;52.168;5.420;2023-12-07T12:33:50;24.52;;;8.95;;
10319;SDS011;5205;52.168;5.420;2023-12-07T12:36:18;21.42;;;9.32;;
10319;SDS011;5205;52.168;5.420;2023-12-07T12:38:48;18.42;;;8.32;;
10319;SDS011;5205;52.168;5.420;2023-12-07T12:41:17;19.67;;;8.35;;
10319;SDS011;5205;52.168;5.420;2023-12-07T12:43:45;23.08;;;9.05;;
10319;SDS011;5205;52.168;5.420;2023-12-07T12:46:12;20.00;;;7.95;;
10319;SDS011;5205;52.168;5.420;2023-12-07T12:48:53;25.60;;;9.05;;
10319;SDS011;5205;52.168;5.420;2023-12-07T12:51:22;19.98;;;8.02;;
10319;SDS011;5205;52.168;5.420;2023-12-07T12:53:50;18.35;;;8.63;;
10319;SDS011;5205;52.168;5.420;2023-12-07T12:56:18;27.00;;;9.82;;
10319;SDS011;5205;52.168;5.420;2023-12-07T12:58:45;25.05;;;9.55;;
10319;SDS011;5205;52.168;5.420;2023-12-07T13:03:41;21.67;;;8.90;;
10319;SDS011;5205;52.168;5.420;2023-12-07T13:06:09;18.75;;;8.70;;
10319;SDS011;5205;52.168;5.420;2023-12-07T13:08:36;25.67;;;10.63;;
10319;SDS011;5205;52.168;5.420;2023-12-07T13:11:03;22.40;;;10.30;;
10319;SDS011;5205;52.168;5.420;2023-12-07T13:15:57;22.80;;;10.70;;
10319;SDS011;5205;52.168;5.420;2023-12-07T13:18:25;21.77;;;10.40;;
10319;SDS011;5205;52.168;5.420;2023-12-07T13:20:52;22.95;;;9.95;;
10319;SDS011;5205;52.168;5.420;2023-12-07T13:25:49;16.80;;;8.43;;
10319;SDS011;5205;52.168;5.420;2023-12-07T13:28:17;19.95;;;8.70;;
10319;SDS011;5205;52.168;5.420;2023-12-07T13:33:12;20.23;;;9.95;;
10319;SDS011;5205;52.168;5.420;2023-12-07T13:35:39;19.95;;;9.18;;
10319;SDS011;5205;52.168;5.420;2023-12-07T13:38:06;15.52;;;7.40;;
10319;SDS011;5205;52.168;5.420;2023-12-07T13:40:33;21.33;;;10.40;;
10319;SDS011;5205;52.168;5.420;2023-12-07T13:43:03;22.33;;;9.18;;
10319;SDS011;5205;52.168;5.420;2023-12-07T13:45:31;22.92;;;9.35;;
10319;SDS011;5205;52.168;5.420;2023-12-07T13:47:59;24.27;;;11.50;;
10319;SDS011;5205;52.168;5.420;2023-12-07T13:50:26;22.20;;;10.43;;
10319;SDS011;5205;52.168;5.420;2023-12-07T13:52:54;24.73;;;9.10;;
10319;SDS011;5205;52.168;5.420;2023-12-07T13:55:21;23.90;;;10.95;;
10319;SDS011;5205;52.168;5.420;2023-12-07T13:57:49;23.15;;;9.32;;
10319;SDS011;5205;52.168;5.420;2023-12-07T14:00:19;26.33;;;9.95;;
10319;SDS011;5205;52.168;5.420;2023-12-07T14:02:47;21.23;;;10.10;;
10319;SDS011;5205;52.168;5.420;2023-12-07T14:05:14;27.08;;;11.52;;
10319;SDS011;5205;52.168;5.420;2023-12-07T14:07:43;22.67;;;10.70;;
10319;SDS011;5205;52.168;5.420;2023-12-07T14:10:11;22.40;;;10.55;;
10319;SDS011;5205;52.168;5.420;2023-12-07T14:12:38;26.63;;;10.57;;
10319;SDS011;5205;52.168;5.420;2023-12-07T14:15:05;24.05;;;11.25;;
10319;SDS011;5205;52.168;5.420;2023-12-07T14:17:34;25.95;;;11.10;;
10319;SDS011;5205;52.168;5.420;2023-12-07T14:20:03;25.98;;;10.75;;
10319;SDS011;5205;52.168;5.420;2023-12-07T14:22:30;30.77;;;11.32;;
10319;SDS011;5205;52.168;5.420;2023-12-07T14:24:57;26.50;;;11.80;;
10319;SDS011;5205;52.168;5.420;2023-12-07T14:27:24;24.00;;;11.05;;
10319;SDS011;5205;52.168;5.420;2023-12-07T14:29:51;25.85;;;11.15;;
10319;SDS011;5205;52.168;5.420;2023-12-07T14:32:18;26.02;;;11.30;;
10319;SDS011;5205;52.168;5.420;2023-12-07T14:34:47;20.80;;;9.85;;
10319;SDS011;5205;52.168;5.420;2023-12-07T14:37:14;28.65;;;11.20;;
10319;SDS011;5205;52.168;5.420;2023-12-07T14:42:09;24.98;;;11.50;;
10319;SDS011;5205;52.168;5.420;2023-12-07T14:47:03;25.88;;;10.57;;
10319;SDS011;5205;52.168;5.420;2023-12-07T14:49:30;26.80;;;10.77;;
10319;SDS011;5205;52.168;5.420;2023-12-07T14:54:26;21.65;;;10.13;;
10319;SDS011;5205;52.168;5.420;2023-12-07T14:56:55;29.08;;;11.07;;
10319;SDS011;5205;52.168;5.420;2023-12-07T14:59:23;23.75;;;10.15;;
10319;SDS011;5205;52.168;5.420;2023-12-07T15:01:50;26.42;;;10.90;;
10319;SDS011;5205;52.168;5.420;2023-12-07T15:04:17;27.17;;;11.05;;
10319;SDS011;5205;52.168;5.420;2023-12-07T15:09:11;26.85;;;11.13;;
10319;SDS011;5205;52.168;5.420;2023-12-07T15:11:40;30.42;;;12.68;;
10319;SDS011;5205;52.168;5.420;2023-12-07T15:14:08;27.27;;;10.07;;
10319;SDS011;5205;52.168;5.420;2023-12-07T15:16:36;25.45;;;11.90;;
10319;SDS011;5205;52.168;5.420;2023-12-07T15:19:03;25.13;;;10.75;;
10319;SDS011;5205;52.168;5.420;2023-12-07T15:21:30;28.17;;;11.70;;
10319;SDS011;5205;52.168;5.420;2023-12-07T15:23:58;32.25;;;14.07;;
10319;SDS011;5205;52.168;5.420;2023-12-07T15:28:53;31.02;;;12.30;;
10319;SDS011;5205;52.168;5.420;2023-12-07T15:31:21;33.60;;;12.65;;
10319;SDS011;5205;52.168;5.420;2023-12-07T15:33:48;35.47;;;13.27;;
10319;SDS011;5205;52.168;5.420;2023-12-07T15:36:16;28.30;;;12.27;;
10319;SDS011;5205;52.168;5.420;2023-12-07T15:38:43;34.63;;;12.60;;
10319;SDS011;5205;52.168;5.420;2023-12-07T15:41:10;31.35;;;13.43;;
10319;SDS011;5205;52.168;5.420;2023-12-07T15:43:37;32.20;;;14.50;;